Pacific Beach, California
Current Conditions -  °F | °C
As of 5:51 AM on Wednesday 28 Jan 2015 (Local Time) from KSAN Reporting Station
Broken Clouds Broken Clouds  
Wind Chill: 56°   Ceiling: 25000
Heat Index: 56°   Visibility: 10mi
Dew Point: 48°   Wind: 3mph
Humidity: 75%   Direction: 30°NNE
Pressure: 30.14"   Gusts: NA
Location:  32.7984°N, 117.236°W
Report Text: KSAN 281351Z 03003KT 10SM BKN250 13/09 A3014 RMK AO2 SLP205 T01330089
Loading
Personal Weather Stations






























Interactive Weather Map New forecast layout! Learn more

10-Day Weather Forecast

Advertisements
Track Severe Weather on mobile